sensor_id;sensor_type;location;lat;lon;timestamp;P1;durP1;ratioP1;P2;durP2;ratioP2
20593;SDS011;10455;48.732;10.266;2023-03-19T00:00:32;11.20;;;7.20;;
20593;SDS011;10455;48.732;10.266;2023-03-19T00:05:35;8.83;;;6.70;;
20593;SDS011;10455;48.732;10.266;2023-03-19T00:10:37;8.93;;;6.63;;
20593;SDS011;10455;48.732;10.266;2023-03-19T00:15:39;10.57;;;7.53;;
20593;SDS011;10455;48.732;10.266;2023-03-19T00:20:43;8.43;;;7.13;;
20593;SDS011;10455;48.732;10.266;2023-03-19T00:25:45;10.37;;;7.27;;
20593;SDS011;10455;48.732;10.266;2023-03-19T00:30:47;7.70;;;6.93;;
20593;SDS011;10455;48.732;10.266;2023-03-19T00:35:50;8.00;;;6.40;;
20593;SDS011;10455;48.732;10.266;2023-03-19T00:40:52;8.57;;;6.57;;
20593;SDS011;10455;48.732;10.266;2023-03-19T00:45:54;9.07;;;6.70;;
20593;SDS011;10455;48.732;10.266;2023-03-19T00:51:02;7.53;;;6.17;;
20593;SDS011;10455;48.732;10.266;2023-03-19T00:56:04;9.47;;;6.93;;
20593;SDS011;10455;48.732;10.266;2023-03-19T01:01:07;7.70;;;6.83;;
20593;SDS011;10455;48.732;10.266;2023-03-19T01:06:11;9.43;;;7.47;;
20593;SDS011;10455;48.732;10.266;2023-03-19T01:11:13;9.70;;;7.90;;
20593;SDS011;10455;48.732;10.266;2023-03-19T01:16:17;10.23;;;7.83;;
20593;SDS011;10455;48.732;10.266;2023-03-19T01:21:20;10.70;;;8.13;;
20593;SDS011;10455;48.732;10.266;2023-03-19T01:26:22;8.50;;;7.33;;
20593;SDS011;10455;48.732;10.266;2023-03-19T01:31:24;9.23;;;7.20;;
20593;SDS011;10455;48.732;10.266;2023-03-19T01:36:27;10.43;;;6.93;;
20593;SDS011;10455;48.732;10.266;2023-03-19T01:41:29;7.83;;;6.77;;
20593;SDS011;10455;48.732;10.266;2023-03-19T01:46:31;8.57;;;6.27;;
20593;SDS011;10455;48.732;10.266;2023-03-19T01:51:38;9.07;;;6.57;;
20593;SDS011;10455;48.732;10.266;2023-03-19T01:56:43;7.10;;;6.40;;
20593;SDS011;10455;48.732;10.266;2023-03-19T02:01:49;10.53;;;6.20;;
20593;SDS011;10455;48.732;10.266;2023-03-19T02:06:56;6.93;;;5.70;;
20593;SDS011;10455;48.732;10.266;2023-03-19T02:12:00;7.87;;;6.07;;
20593;SDS011;10455;48.732;10.266;2023-03-19T02:17:02;13.83;;;6.17;;
20593;SDS011;10455;48.732;10.266;2023-03-19T02:22:06;7.30;;;5.80;;
20593;SDS011;10455;48.732;10.266;2023-03-19T02:27:12;5.93;;;5.33;;
20593;SDS011;10455;48.732;10.266;2023-03-19T02:32:14;9.00;;;6.50;;
20593;SDS011;10455;48.732;10.266;2023-03-19T02:37:16;8.47;;;6.70;;
20593;SDS011;10455;48.732;10.266;2023-03-19T02:42:24;7.73;;;6.47;;
20593;SDS011;10455;48.732;10.266;2023-03-19T02:47:29;7.10;;;5.30;;
20593;SDS011;10455;48.732;10.266;2023-03-19T02:52:30;9.50;;;6.10;;
20593;SDS011;10455;48.732;10.266;2023-03-19T02:57:34;8.13;;;6.40;;
20593;SDS011;10455;48.732;10.266;2023-03-19T03:02:35;7.67;;;6.10;;
20593;SDS011;10455;48.732;10.266;2023-03-19T03:07:38;11.50;;;6.37;;
20593;SDS011;10455;48.732;10.266;2023-03-19T03:12:43;5.77;;;5.17;;
20593;SDS011;10455;48.732;10.266;2023-03-19T03:17:45;7.83;;;5.00;;
20593;SDS011;10455;48.732;10.266;2023-03-19T03:22:47;6.77;;;5.30;;
20593;SDS011;10455;48.732;10.266;2023-03-19T03:27:50;10.10;;;5.30;;
20593;SDS011;10455;48.732;10.266;2023-03-19T03:32:52;8.27;;;5.60;;
20593;SDS011;10455;48.732;10.266;2023-03-19T03:37:54;5.77;;;5.27;;
20593;SDS011;10455;48.732;10.266;2023-03-19T03:42:58;6.03;;;5.33;;
20593;SDS011;10455;48.732;10.266;2023-03-19T03:48:00;6.87;;;5.63;;
20593;SDS011;10455;48.732;10.266;2023-03-19T03:53:02;5.90;;;5.40;;
20593;SDS011;10455;48.732;10.266;2023-03-19T03:58:05;6.17;;;5.40;;
20593;SDS011;10455;48.732;10.266;2023-03-19T04:03:07;6.10;;;4.90;;
20593;SDS011;10455;48.732;10.266;2023-03-19T04:08:09;8.03;;;5.00;;
20593;SDS011;10455;48.732;10.266;2023-03-19T04:13:12;5.87;;;4.67;;
20593;SDS011;10455;48.732;10.266;2023-03-19T04:18:14;5.23;;;4.70;;
20593;SDS011;10455;48.732;10.266;2023-03-19T04:23:16;5.37;;;4.63;;
20593;SDS011;10455;48.732;10.266;2023-03-19T04:28:19;6.20;;;4.93;;
20593;SDS011;10455;48.732;10.266;2023-03-19T04:33:21;6.70;;;4.47;;
20593;SDS011;10455;48.732;10.266;2023-03-19T04:38:23;10.07;;;4.77;;
20593;SDS011;10455;48.732;10.266;2023-03-19T04:43:28;7.00;;;4.80;;
20593;SDS011;10455;48.732;10.266;2023-03-19T04:48:29;6.70;;;4.73;;
20593;SDS011;10455;48.732;10.266;2023-03-19T04:53:32;7.20;;;4.63;;
20593;SDS011;10455;48.732;10.266;2023-03-19T04:58:36;7.13;;;4.67;;
20593;SDS011;10455;48.732;10.266;2023-03-19T05:03:38;7.80;;;5.50;;
20593;SDS011;10455;48.732;10.266;2023-03-19T05:08:40;7.27;;;5.50;;
20593;SDS011;10455;48.732;10.266;2023-03-19T05:13:43;6.50;;;5.67;;
20593;SDS011;10455;48.732;10.266;2023-03-19T05:18:45;6.07;;;5.20;;
20593;SDS011;10455;48.732;10.266;2023-03-19T05:23:47;5.63;;;5.13;;
20593;SDS011;10455;48.732;10.266;2023-03-19T05:28:52;4.80;;;4.37;;
20593;SDS011;10455;48.732;10.266;2023-03-19T05:33:54;5.20;;;4.20;;
20593;SDS011;10455;48.732;10.266;2023-03-19T05:38:56;5.20;;;3.60;;
20593;SDS011;10455;48.732;10.266;2023-03-19T05:43:59;4.07;;;3.60;;
20593;SDS011;10455;48.732;10.266;2023-03-19T05:49:01;3.87;;;3.47;;
20593;SDS011;10455;48.732;10.266;2023-03-19T05:54:03;6.67;;;3.80;;
20593;SDS011;10455;48.732;10.266;2023-03-19T05:59:07;5.77;;;3.93;;
20593;SDS011;10455;48.732;10.266;2023-03-19T06:04:09;5.37;;;4.17;;
20593;SDS011;10455;48.732;10.266;2023-03-19T06:09:11;6.90;;;5.77;;
20593;SDS011;10455;48.732;10.266;2023-03-19T06:14:14;7.43;;;6.70;;
20593;SDS011;10455;48.732;10.266;2023-03-19T06:19:16;9.17;;;6.70;;
20593;SDS011;10455;48.732;10.266;2023-03-19T06:24:17;8.30;;;7.50;;
20593;SDS011;10455;48.732;10.266;2023-03-19T06:29:21;12.00;;;10.63;;
20593;SDS011;10455;48.732;10.266;2023-03-19T06:34:23;13.80;;;11.63;;
20593;SDS011;10455;48.732;10.266;2023-03-19T06:39:25;11.50;;;10.30;;
20593;SDS011;10455;48.732;10.266;2023-03-19T06:44:28;13.57;;;11.60;;
20593;SDS011;10455;48.732;10.266;2023-03-19T06:49:30;20.00;;;15.87;;
20593;SDS011;10455;48.732;10.266;2023-03-19T06:54:32;11.57;;;9.93;;
20593;SDS011;10455;48.732;10.266;2023-03-19T06:59:35;14.47;;;11.07;;
20593;SDS011;10455;48.732;10.266;2023-03-19T07:04:37;15.87;;;12.03;;
20593;SDS011;10455;48.732;10.266;2023-03-19T07:09:39;13.17;;;11.83;;
20593;SDS011;10455;48.732;10.266;2023-03-19T07:14:42;16.60;;;11.13;;
20593;SDS011;10455;48.732;10.266;2023-03-19T07:19:44;18.33;;;13.53;;
20593;SDS011;10455;48.732;10.266;2023-03-19T07:24:46;17.27;;;13.87;;
20593;SDS011;10455;48.732;10.266;2023-03-19T07:29:49;16.60;;;13.97;;
20593;SDS011;10455;48.732;10.266;2023-03-19T07:34:51;18.47;;;15.33;;
20593;SDS011;10455;48.732;10.266;2023-03-19T07:39:53;13.57;;;11.03;;
20593;SDS011;10455;48.732;10.266;2023-03-19T07:44:56;13.37;;;11.27;;
20593;SDS011;10455;48.732;10.266;2023-03-19T07:49:58;15.17;;;11.27;;
20593;SDS011;10455;48.732;10.266;2023-03-19T07:55:00;10.20;;;8.30;;
20593;SDS011;10455;48.732;10.266;2023-03-19T08:00:04;13.33;;;10.90;;
20593;SDS011;10455;48.732;10.266;2023-03-19T08:05:07;14.87;;;13.23;;
20593;SDS011;10455;48.732;10.266;2023-03-19T08:10:10;13.57;;;11.43;;
20593;SDS011;10455;48.732;10.266;2023-03-19T08:15:13;10.70;;;9.17;;
20593;SDS011;10455;48.732;10.266;2023-03-19T08:20:15;10.40;;;9.23;;
20593;SDS011;10455;48.732;10.266;2023-03-19T08:25:17;16.10;;;8.53;;
20593;SDS011;10455;48.732;10.266;2023-03-19T08:30:21;9.03;;;8.13;;
20593;SDS011;10455;48.732;10.266;2023-03-19T08:35:23;11.40;;;7.97;;
20593;SDS011;10455;48.732;10.266;2023-03-19T08:40:27;10.67;;;9.00;;
20593;SDS011;10455;48.732;10.266;2023-03-19T08:45:31;8.80;;;8.00;;
20593;SDS011;10455;48.732;10.266;2023-03-19T08:50:33;15.73;;;10.10;;
20593;SDS011;10455;48.732;10.266;2023-03-19T08:55:35;10.30;;;7.93;;
20593;SDS011;10455;48.732;10.266;2023-03-19T09:00:38;7.27;;;6.50;;
20593;SDS011;10455;48.732;10.266;2023-03-19T09:05:40;6.53;;;5.93;;
20593;SDS011;10455;48.732;10.266;2023-03-19T09:10:42;10.23;;;6.27;;
20593;SDS011;10455;48.732;10.266;2023-03-19T09:15:46;9.10;;;7.13;;
20593;SDS011;10455;48.732;10.266;2023-03-19T09:20:48;6.63;;;5.50;;
20593;SDS011;10455;48.732;10.266;2023-03-19T09:25:50;9.20;;;7.10;;
20593;SDS011;10455;48.732;10.266;2023-03-19T09:30:54;6.53;;;5.93;;
20593;SDS011;10455;48.732;10.266;2023-03-19T09:35:56;6.20;;;5.53;;
20593;SDS011;10455;48.732;10.266;2023-03-19T09:41:04;7.80;;;5.50;;
20593;SDS011;10455;48.732;10.266;2023-03-19T09:46:12;4.83;;;4.17;;
20593;SDS011;10455;48.732;10.266;2023-03-19T09:51:19;5.45;;;3.30;;
20593;SDS011;10455;48.732;10.266;2023-03-19T09:56:26;4.10;;;2.88;;
20593;SDS011;10455;48.732;10.266;2023-03-19T10:01:34;7.40;;;2.95;;
20593;SDS011;10455;48.732;10.266;2023-03-19T10:06:39;21.30;;;3.58;;
20593;SDS011;10455;48.732;10.266;2023-03-19T10:11:44;3.88;;;2.40;;
20593;SDS011;10455;48.732;10.266;2023-03-19T10:16:56;3.85;;;2.78;;
20593;SDS011;10455;48.732;10.266;2023-03-19T10:22:03;3.13;;;2.80;;
20593;SDS011;10455;48.732;10.266;2023-03-19T10:27:08;4.20;;;2.65;;
20593;SDS011;10455;48.732;10.266;2023-03-19T10:32:16;2.78;;;2.38;;
20593;SDS011;10455;48.732;10.266;2023-03-19T10:37:21;2.92;;;2.60;;
20593;SDS011;10455;48.732;10.266;2023-03-19T10:42:30;3.95;;;2.67;;
20593;SDS011;10455;48.732;10.266;2023-03-19T10:47:44;2.60;;;2.40;;
20593;SDS011;10455;48.732;10.266;2023-03-19T10:52:48;3.20;;;2.40;;
20593;SDS011;10455;48.732;10.266;2023-03-19T10:57:55;2.60;;;2.40;;
20593;SDS011;10455;48.732;10.266;2023-03-19T11:03:03;2.90;;;2.60;;
20593;SDS011;10455;48.732;10.266;2023-03-19T11:08:26;3.65;;;2.60;;
20593;SDS011;10455;48.732;10.266;2023-03-19T11:13:28;2.78;;;2.20;;
20593;SDS011;10455;48.732;10.266;2023-03-19T11:18:36;2.50;;;2.30;;
20593;SDS011;10455;48.732;10.266;2023-03-19T11:23:40;2.75;;;2.30;;
20593;SDS011;10455;48.732;10.266;2023-03-19T11:28:42;3.30;;;2.17;;
20593;SDS011;10455;48.732;10.266;2023-03-19T11:33:52;2.60;;;2.40;;
20593;SDS011;10455;48.732;10.266;2023-03-19T11:39:11;3.33;;;2.60;;
20593;SDS011;10455;48.732;10.266;2023-03-19T11:44:19;12.43;;;3.05;;
20593;SDS011;10455;48.732;10.266;2023-03-19T11:49:43;3.25;;;2.85;;
20593;SDS011;10455;48.732;10.266;2023-03-19T11:54:57;2.70;;;2.50;;
20593;SDS011;10455;48.732;10.266;2023-03-19T12:00:12;4.35;;;2.90;;
20593;SDS011;10455;48.732;10.266;2023-03-19T12:05:28;3.97;;;3.03;;
20593;SDS011;10455;48.732;10.266;2023-03-19T12:10:44;4.00;;;3.20;;
20593;SDS011;10455;48.732;10.266;2023-03-19T12:15:57;5.28;;;3.40;;
20593;SDS011;10455;48.732;10.266;2023-03-19T12:21:08;5.25;;;3.40;;
20593;SDS011;10455;48.732;10.266;2023-03-19T12:26:17;5.55;;;3.58;;
20593;SDS011;10455;48.732;10.266;2023-03-19T12:31:32;3.97;;;3.60;;
20593;SDS011;10455;48.732;10.266;2023-03-19T12:36:44;4.10;;;3.45;;
20593;SDS011;10455;48.732;10.266;2023-03-19T12:41:52;4.00;;;3.70;;
20593;SDS011;10455;48.732;10.266;2023-03-19T12:46:58;4.72;;;3.72;;
20593;SDS011;10455;48.732;10.266;2023-03-19T12:52:06;5.15;;;3.88;;
20593;SDS011;10455;48.732;10.266;2023-03-19T12:57:14;4.68;;;4.10;;
20593;SDS011;10455;48.732;10.266;2023-03-19T13:02:21;4.22;;;3.83;;
20593;SDS011;10455;48.732;10.266;2023-03-19T13:07:32;4.20;;;3.80;;
20593;SDS011;10455;48.732;10.266;2023-03-19T13:12:40;5.10;;;4.07;;
20593;SDS011;10455;48.732;10.266;2023-03-19T13:17:47;4.40;;;4.00;;
20593;SDS011;10455;48.732;10.266;2023-03-19T13:22:58;4.55;;;3.90;;
20593;SDS011;10455;48.732;10.266;2023-03-19T13:28:05;5.18;;;4.18;;
20593;SDS011;10455;48.732;10.266;2023-03-19T13:33:12;6.65;;;4.47;;
20593;SDS011;10455;48.732;10.266;2023-03-19T13:38:19;4.57;;;3.50;;
20593;SDS011;10455;48.732;10.266;2023-03-19T13:48:48;4.60;;;3.45;;
20593;SDS011;10455;48.732;10.266;2023-03-19T13:53:53;5.72;;;3.60;;
20593;SDS011;10455;48.732;10.266;2023-03-19T14:04:31;3.40;;;3.10;;
20593;SDS011;10455;48.732;10.266;2023-03-19T14:09:38;7.05;;;3.00;;
20593;SDS011;10455;48.732;10.266;2023-03-19T14:14:43;4.45;;;3.30;;
20593;SDS011;10455;48.732;10.266;2023-03-19T14:19:48;4.63;;;3.40;;
20593;SDS011;10455;48.732;10.266;2023-03-19T14:25:01;3.92;;;3.40;;
20593;SDS011;10455;48.732;10.266;2023-03-19T14:30:20;3.60;;;3.30;;
20593;SDS011;10455;48.732;10.266;2023-03-19T14:35:31;4.72;;;3.47;;
20593;SDS011;10455;48.732;10.266;2023-03-19T14:40:39;5.57;;;3.80;;
20593;SDS011;10455;48.732;10.266;2023-03-19T14:45:48;3.83;;;3.38;;
20593;SDS011;10455;48.732;10.266;2023-03-19T14:51:05;10.57;;;6.45;;
20593;SDS011;10455;48.732;10.266;2023-03-19T14:56:26;5.20;;;4.70;;
20593;SDS011;10455;48.732;10.266;2023-03-19T15:01:33;14.38;;;9.65;;
20593;SDS011;10455;48.732;10.266;2023-03-19T15:06:40;0.50;;;0.50;;
20593;SDS011;10455;48.732;10.266;2023-03-19T15:11:50;0.40;;;0.40;;
20593;SDS011;10455;48.732;10.266;2023-03-19T15:17:05;0.40;;;0.40;;
20593;SDS011;10455;48.732;10.266;2023-03-19T15:22:15;0.30;;;0.30;;
20593;SDS011;10455;48.732;10.266;2023-03-19T15:27:22;0.40;;;0.40;;
20593;SDS011;10455;48.732;10.266;2023-03-19T15:32:29;0.30;;;0.30;;
20593;SDS011;10455;48.732;10.266;2023-03-19T15:37:34;0.40;;;0.40;;
20593;SDS011;10455;48.732;10.266;2023-03-19T15:42:40;0.30;;;0.30;;
20593;SDS011;10455;48.732;10.266;2023-03-19T15:47:44;0.40;;;0.40;;
20593;SDS011;10455;48.732;10.266;2023-03-19T15:52:52;0.40;;;0.40;;
20593;SDS011;10455;48.732;10.266;2023-03-19T15:58:03;0.30;;;0.30;;
20593;SDS011;10455;48.732;10.266;2023-03-19T16:03:10;0.30;;;0.30;;
20593;SDS011;10455;48.732;10.266;2023-03-19T16:08:17;0.40;;;0.40;;
20593;SDS011;10455;48.732;10.266;2023-03-19T16:13:30;0.30;;;0.30;;
20593;SDS011;10455;48.732;10.266;2023-03-19T16:18:41;0.30;;;0.30;;
20593;SDS011;10455;48.732;10.266;2023-03-19T16:23:50;0.30;;;0.30;;
20593;SDS011;10455;48.732;10.266;2023-03-19T16:28:58;0.30;;;0.30;;
20593;SDS011;10455;48.732;10.266;2023-03-19T16:34:04;0.30;;;0.30;;
20593;SDS011;10455;48.732;10.266;2023-03-19T16:39:24;0.30;;;0.30;;
20593;SDS011;10455;48.732;10.266;2023-03-19T16:44:33;0.40;;;0.40;;
20593;SDS011;10455;48.732;10.266;2023-03-19T16:49:39;0.30;;;0.30;;
20593;SDS011;10455;48.732;10.266;2023-03-19T16:54:41;0.30;;;0.30;;
20593;SDS011;10455;48.732;10.266;2023-03-19T16:59:44;0.30;;;0.30;;
20593;SDS011;10455;48.732;10.266;2023-03-19T17:04:47;0.40;;;0.40;;
20593;SDS011;10455;48.732;10.266;2023-03-19T17:09:49;0.40;;;0.40;;
20593;SDS011;10455;48.732;10.266;2023-03-19T17:14:52;0.40;;;0.40;;
20593;SDS011;10455;48.732;10.266;2023-03-19T17:19:54;0.40;;;0.40;;
20593;SDS011;10455;48.732;10.266;2023-03-19T17:24:56;0.40;;;0.40;;
20593;SDS011;10455;48.732;10.266;2023-03-19T17:29:59;0.40;;;0.40;;
20593;SDS011;10455;48.732;10.266;2023-03-19T17:35:01;0.40;;;0.40;;
20593;SDS011;10455;48.732;10.266;2023-03-19T17:40:05;0.40;;;0.40;;
20593;SDS011;10455;48.732;10.266;2023-03-19T17:45:19;0.40;;;0.40;;
20593;SDS011;10455;48.732;10.266;2023-03-19T17:50:28;0.40;;;0.40;;
20593;SDS011;10455;48.732;10.266;2023-03-19T17:55:32;0.40;;;0.40;;
20593;SDS011;10455;48.732;10.266;2023-03-19T18:00:35;0.40;;;0.40;;
20593;SDS011;10455;48.732;10.266;2023-03-19T18:05:37;0.47;;;0.47;;
20593;SDS011;10455;48.732;10.266;2023-03-19T18:10:39;0.40;;;0.40;;
20593;SDS011;10455;48.732;10.266;2023-03-19T18:15:43;0.40;;;0.40;;
20593;SDS011;10455;48.732;10.266;2023-03-19T18:20:45;0.40;;;0.40;;
20593;SDS011;10455;48.732;10.266;2023-03-19T18:25:48;0.40;;;0.40;;
20593;SDS011;10455;48.732;10.266;2023-03-19T18:30:52;1.27;;;1.27;;
20593;SDS011;10455;48.732;10.266;2023-03-19T18:35:54;0.50;;;0.50;;
20593;SDS011;10455;48.732;10.266;2023-03-19T18:40:57;0.50;;;0.50;;
20593;SDS011;10455;48.732;10.266;2023-03-19T18:46:01;0.50;;;0.50;;
20593;SDS011;10455;48.732;10.266;2023-03-19T18:51:03;0.40;;;0.40;;
20593;SDS011;10455;48.732;10.266;2023-03-19T18:56:09;0.40;;;0.40;;
20593;SDS011;10455;48.732;10.266;2023-03-19T19:01:20;0.50;;;0.50;;
20593;SDS011;10455;48.732;10.266;2023-03-19T19:06:23;0.50;;;0.50;;
20593;SDS011;10455;48.732;10.266;2023-03-19T19:11:26;0.60;;;0.60;;
20593;SDS011;10455;48.732;10.266;2023-03-19T19:16:29;0.50;;;0.50;;
20593;SDS011;10455;48.732;10.266;2023-03-19T19:21:34;0.50;;;0.50;;
20593;SDS011;10455;48.732;10.266;2023-03-19T19:26:36;0.60;;;0.60;;
20593;SDS011;10455;48.732;10.266;2023-03-19T19:31:39;0.60;;;0.60;;
20593;SDS011;10455;48.732;10.266;2023-03-19T19:36:42;0.60;;;0.60;;
20593;SDS011;10455;48.732;10.266;2023-03-19T19:41:44;0.70;;;0.70;;
20593;SDS011;10455;48.732;10.266;2023-03-19T19:46:48;0.60;;;0.60;;
20593;SDS011;10455;48.732;10.266;2023-03-19T19:51:52;0.60;;;0.60;;
20593;SDS011;10455;48.732;10.266;2023-03-19T19:56:54;0.60;;;0.60;;
20593;SDS011;10455;48.732;10.266;2023-03-19T20:01:58;1.37;;;1.37;;
20593;SDS011;10455;48.732;10.266;2023-03-19T20:07:00;0.60;;;0.60;;
20593;SDS011;10455;48.732;10.266;2023-03-19T20:12:02;0.60;;;0.60;;
20593;SDS011;10455;48.732;10.266;2023-03-19T20:17:05;0.60;;;0.60;;
20593;SDS011;10455;48.732;10.266;2023-03-19T20:22:10;0.60;;;0.60;;
20593;SDS011;10455;48.732;10.266;2023-03-19T20:27:14;0.60;;;0.60;;
20593;SDS011;10455;48.732;10.266;2023-03-19T20:32:27;0.70;;;0.70;;
20593;SDS011;10455;48.732;10.266;2023-03-19T20:37:32;0.60;;;0.60;;
20593;SDS011;10455;48.732;10.266;2023-03-19T20:42:34;0.60;;;0.60;;
20593;SDS011;10455;48.732;10.266;2023-03-19T20:47:37;0.50;;;0.50;;
20593;SDS011;10455;48.732;10.266;2023-03-19T20:52:39;0.70;;;0.70;;
20593;SDS011;10455;48.732;10.266;2023-03-19T20:57:41;0.63;;;0.63;;
20593;SDS011;10455;48.732;10.266;2023-03-19T21:02:48;0.60;;;0.60;;
20593;SDS011;10455;48.732;10.266;2023-03-19T21:07:51;0.60;;;0.60;;
20593;SDS011;10455;48.732;10.266;2023-03-19T21:12:54;0.60;;;0.60;;
20593;SDS011;10455;48.732;10.266;2023-03-19T21:17:58;0.60;;;0.60;;
20593;SDS011;10455;48.732;10.266;2023-03-19T21:23:01;0.60;;;0.60;;
20593;SDS011;10455;48.732;10.266;2023-03-19T21:28:10;0.60;;;0.60;;
20593;SDS011;10455;48.732;10.266;2023-03-19T21:33:26;0.70;;;0.70;;
20593;SDS011;10455;48.732;10.266;2023-03-19T21:38:29;3.43;;;3.33;;
20593;SDS011;10455;48.732;10.266;2023-03-19T21:43:32;0.70;;;0.70;;
20593;SDS011;10455;48.732;10.266;2023-03-19T21:48:37;0.60;;;0.60;;
20593;SDS011;10455;48.732;10.266;2023-03-19T21:53:39;0.70;;;0.70;;
20593;SDS011;10455;48.732;10.266;2023-03-19T21:58:41;0.60;;;0.60;;
20593;SDS011;10455;48.732;10.266;2023-03-19T22:03:45;0.70;;;0.70;;
20593;SDS011;10455;48.732;10.266;2023-03-19T22:08:47;0.50;;;0.50;;
20593;SDS011;10455;48.732;10.266;2023-03-19T22:13:49;0.60;;;0.60;;
20593;SDS011;10455;48.732;10.266;2023-03-19T22:18:53;0.70;;;0.70;;
20593;SDS011;10455;48.732;10.266;2023-03-19T22:23:55;0.70;;;0.70;;
20593;SDS011;10455;48.732;10.266;2023-03-19T22:28:58;0.70;;;0.70;;
20593;SDS011;10455;48.732;10.266;2023-03-19T22:34:03;0.80;;;0.80;;
20593;SDS011;10455;48.732;10.266;2023-03-19T22:39:05;0.60;;;0.60;;
20593;SDS011;10455;48.732;10.266;2023-03-19T22:44:11;0.70;;;0.70;;
20593;SDS011;10455;48.732;10.266;2023-03-19T22:49:19;1.77;;;1.77;;
20593;SDS011;10455;48.732;10.266;2023-03-19T22:54:21;0.70;;;0.70;;
20593;SDS011;10455;48.732;10.266;2023-03-19T22:59:23;0.60;;;0.60;;
20593;SDS011;10455;48.732;10.266;2023-03-19T23:04:27;0.70;;;0.70;;
20593;SDS011;10455;48.732;10.266;2023-03-19T23:09:31;0.70;;;0.70;;
20593;SDS011;10455;48.732;10.266;2023-03-19T23:14:35;0.73;;;0.73;;
20593;SDS011;10455;48.732;10.266;2023-03-19T23:19:38;0.60;;;0.60;;
20593;SDS011;10455;48.732;10.266;2023-03-19T23:24:40;0.90;;;0.90;;
20593;SDS011;10455;48.732;10.266;2023-03-19T23:29:43;0.90;;;0.90;;
20593;SDS011;10455;48.732;10.266;2023-03-19T23:34:47;0.80;;;0.80;;
20593;SDS011;10455;48.732;10.266;2023-03-19T23:39:49;0.80;;;0.80;;
20593;SDS011;10455;48.732;10.266;2023-03-19T23:44:52;0.80;;;0.80;;
20593;SDS011;10455;48.732;10.266;2023-03-19T23:49:59;0.70;;;0.70;;
20593;SDS011;10455;48.732;10.266;2023-03-19T23:55:01;0.80;;;0.80;;
